Latest Weather Observations for Murrurundi Gap

IDN60801

Issued at 4:23 am EST Wednesday 23 September 2020 (issued every 10 minutes, with the page automatically refreshed every 10 minutes)

About weather observations | Map of weather stations | Latest weather observations for NSW | Other Formats
Station Details ID: 061392 Name: MURRURUNDI GAP AWS Lat: -31.74 Lon: 150.79 Height: 729.4 m
Data from the previous 72 hours. | See also: Recent months at Murrurundi Gap
Date/Time
EST
Temp
°C
App
Temp
°C
Dew
Point
°C
Rel
Hum
%
Delta-T
°C
Wind Press
QNH
hPa
Press
MSL
hPa
Rain since
9am
mm
Dir  Spd
km/h
Gust
km/h
Spd
kts
Gust
kts
23/04:00am 10.4 6.0 2.7 59 3.5 NW 15 15 8 8 1015.1 1013.7 0.0
23/03:30am 10.2 5.4 2.8 60 3.3 NW 17 19 9 10 1015.2 1013.8 0.0
23/03:00am 9.8 5.1 2.9 62 3.1 NW 17 19 9 10 1015.3 1014.0 0.0
23/02:30am 10.1 5.7 2.9 61 3.2 NW 15 19 8 10 1015.4 1014.1 0.0
23/02:00am 10.2 5.1 3.0 61 3.2 WNW 19 24 10 13 1015.6 1014.3 0.0
23/01:30am 11.4 5.7 2.9 56 3.9 WNW 22 26 12 14 1015.8 1014.4 0.0
23/01:00am 11.9 6.2 2.6 53 4.2 WNW 22 24 12 13 1015.9 1014.5 0.0
23/12:30am 12.2 6.5 2.6 52 4.4 WNW 22 26 12 14 1016.1 1014.7 0.0
23/12:00am 12.2 6.5 2.6 52 4.4 NW 22 28 12 15 1016.1 1014.7 0.0
 
Date/Time
EST
Temp
°C
App
Temp
°C
Dew
Point
°C
Rel
Hum
%
Delta-T
°C
Wind Press
QNH
hPa
Press
MSL
hPa
Rain since
9am
mm
Dir  Spd
km/h
Gust
km/h
Spd
kts
Gust
kts
22/11:30pm 12.4 6.7 2.6 51 4.5 NW 22 26 12 14 1016.2 1014.8 0.0
22/11:00pm 12.4 6.7 2.6 51 4.5 NW 22 28 12 15 1016.4 1015.0 0.0
22/10:30pm 12.4 6.7 2.6 51 4.5 NW 22 26 12 14 1016.6 1015.3 0.0
22/10:00pm 12.7 7.3 2.6 50 4.6 NW 20 24 11 13 1016.6 1015.3 0.0
22/09:30pm 12.6 7.2 2.5 50 4.6 NW 20 24 11 13 1016.6 1015.3 0.0
22/09:00pm 13.5 8.2 2.1 46 5.2 NW 19 24 10 13 1016.7 1015.4 0.0
22/08:30pm 13.8 8.5 1.8 44 5.4 NW 19 22 10 12 1016.6 1015.3 0.0
22/08:00pm 13.8 8.5 1.8 44 5.4 NW 19 24 10 13 1016.4 1015.0 0.0
22/07:30pm 14.1 8.5 1.4 42 5.7 NW 20 24 11 13 1016.1 1014.7 0.0
22/07:00pm 14.8 9.7 0.6 38 6.3 NW 17 30 9 16 1015.6 1014.3 0.0
22/06:30pm 15.3 9.7 1.1 38 6.4 NW 20 26 11 14 1015.3 1014.0 0.0
22/06:00pm 15.8 10.0 2.2 40 6.3 NW 22 30 12 16 1014.8 1013.4 0.0
22/05:30pm 17.6 11.6 3.1 38 7.0 NW 24 30 13 16 1014.6 1013.2 0.0
22/05:00pm 18.6 12.0 4.4 39 7.0 NW 28 35 15 19 1014.3 1012.9 0.0
22/04:30pm 19.4 12.5 4.4 37 7.5 NW 30 39 16 21 1013.7 1012.3 0.0
22/04:00pm 19.9 13.2 5.5 39 7.4 WNW 30 41 16 22 1013.5 1012.1 0.0
22/03:30pm 20.0 12.8 4.9 37 7.6 WNW 32 43 17 23 1013.3 1011.9 0.0
22/03:00pm 20.6 13.3 7.2 42 7.1 WNW 35 48 19 26 1013.4 1012.0 0.0
22/02:30pm 20.2 11.9 6.2 40 7.3 NW 39 50 21 27 1013.3 1011.9 0.0
22/02:10pm 20.2 11.5 6.2 40 7.3 WNW 41 59 22 32 1013.4 1012.0 0.0
22/02:00pm 20.1 10.2 5.0 37 7.7 NW 46 57 25 31 1013.1 1011.7 0.0
22/01:30pm 19.9 9.4 5.5 39 7.4 NW 50 61 27 33 1012.6 1011.2 0.0
22/01:00pm 19.8 10.9 9.1 50 5.9 NW 46 59 25 32 1013.2 1011.8 0.0
22/12:30pm 19.4 11.0 10.9 58 4.8 NW 46 56 25 30 1013.3 1011.9 0.0
22/12:00pm 19.5 10.9 10.2 55 5.2 NW 46 56 25 30 1013.4 1012.0 0.0
22/11:30am 19.7 13.2 14.1 70 3.3 NW 41 52 22 28 1013.5 1012.1 0.0
22/11:24am 19.7 13.4 14.5 72 3.1 NW 41 48 22 26 1013.7 1012.3 0.0
22/11:00am 18.8 13.8 16.2 85 1.6 NW 37 50 20 27 1014.0 1012.6 0.0
22/10:30am 18.0 13.6 16.7 92 0.8 NW 35 44 19 24 1013.9 1012.5 0.0
22/10:29am 18.0 13.6 16.7 92 0.8 NW 35 46 19 25 1013.9 1012.5 0.0
22/10:24am 18.2 13.6 17.0 93 0.7 NW 37 46 20 25 1013.9 1012.5 0.0
22/10:00am 17.2 14.0 17.2 100 0.0 NW 30 39 16 21 1014.1 1012.8 0.0
22/09:30am 17.7 14.0 17.4 98 0.2 NW 33 43 18 23 1014.0 1012.6 0.0
22/09:00am 16.5 10.9 16.5 100 0.0 NW 41 54 22 29 1013.7 1012.3 7.0
22/08:30am 15.8 9.9 15.8 100 0.0 NW 41 50 22 27 1013.6 1012.2 7.0
22/08:00am 15.4 9.8 15.4 100 0.0 NW 39 48 21 26 1013.4 1012.0 7.0
22/07:56am 15.5 9.9 15.5 100 0.0 NW 39 48 21 26 1013.5 1012.1 7.0
22/07:37am 14.9 10.2 14.9 100 0.0 NW 33 43 18 23 1013.5 1012.1 7.0
22/07:30am 14.9 10.8 14.9 100 0.0 NW 30 35 16 19 1013.3 1011.9 7.0
22/07:00am 14.9 11.2 14.9 100 0.0 NW 28 33 15 18 1013.1 1011.7 7.0
22/06:59am 14.9 11.2 14.9 100 0.0 NW 28 33 15 18 1013.1 1011.7 7.0
22/06:30am 14.9 11.2 14.9 100 0.0 NW 28 35 15 19 1012.7 1011.3 7.0
22/06:00am 15.2 10.6 15.2 100 0.0 WNW 33 39 18 21 1012.3 1010.9 7.0
22/05:30am 15.3 10.8 15.3 100 0.0 NW 33 39 18 21 1012.2 1010.8 7.0
22/05:00am 15.2 9.9 15.2 100 0.0 NW 37 43 20 23 1011.9 1010.5 7.0
22/04:30am 15.5 11.4 15.0 97 0.3 NW 30 37 16 20 1011.7 1010.3 6.8
22/04:00am 15.7 10.3 14.9 95 0.5 NW 37 44 20 24 1011.4 1009.9 6.8
22/03:30am 15.5 11.5 15.3 99 0.1 NW 30 35 16 19 1011.8 1010.4 6.4
22/03:00am 15.3 11.3 15.3 100 0.0 WNW 30 39 16 21 1011.8 1010.4 6.4
22/02:30am 15.6 10.7 15.4 99 0.1 WNW 35 43 19 23 1012.0 1010.6 6.4
22/02:00am 15.6 11.2 15.6 100 0.0 NW 33 37 18 20 1012.2 1010.8 6.4
22/01:30am 15.5 11.2 15.5 100 0.0 NW 32 37 17 20 1012.6 1011.2 6.4
22/01:00am 16.1 12.8 16.1 100 0.0 WNW 28 35 15 19 1012.6 1011.2 6.4
22/12:30am 15.6 12.9 15.6 100 0.0 NW 24 30 13 16 1012.9 1011.4 6.4
22/12:00am 16.6 12.7 16.4 99 0.1 NW 32 37 17 20 1012.9 1011.4 6.4
 
Date/Time
EST
Temp
°C
App
Temp
°C
Dew
Point
°C
Rel
Hum
%
Delta-T
°C
Wind Press
QNH
hPa
Press
MSL
hPa
Rain since
9am
mm
Dir  Spd
km/h
Gust
km/h
Spd
kts
Gust
kts
21/11:33pm 17.1 13.8 17.1 100 0.0 NW 30 35 16 19 1013.3 1011.9 6.4
21/11:30pm 17.1 14.2 17.1 100 0.0 NW 28 35 15 19 1013.4 1012.0 6.4
21/11:13pm 16.6 14.3 16.6 100 0.0 NW 24 28 13 15 1014.0 1012.6 6.4
21/11:00pm 16.7 13.3 16.7 100 0.0 NW 30 33 16 18 1014.1 1012.8 6.4
21/10:31pm 17.2 13.0 17.2 100 0.0 NW 35 44 19 24 1013.7 1012.3 6.2
21/10:30pm 17.3 13.2 17.3 100 0.0 NW 35 44 19 24 1013.6 1012.2 6.2
21/10:12pm 16.9 13.2 16.9 100 0.0 NW 32 43 17 23 1014.1 1012.8 6.0
21/10:00pm 17.1 13.8 17.1 100 0.0 NW 30 35 16 19 1014.0 1012.6 6.0
21/09:30pm 17.6 15.6 17.4 99 0.1 WNW 24 41 13 22 1014.0 1012.6 4.8
21/09:00pm 17.2 16.0 17.0 99 0.1 NW 19 24 10 13 1013.6 1012.2 4.0
21/08:30pm 17.8 15.6 16.8 94 0.6 WNW 24 30 13 16 1013.5 1012.1 4.0
21/08:00pm 18.1 15.0 16.6 91 0.9 WNW 28 35 15 19 1013.0 1011.6 4.0
21/07:30pm 18.1 15.3 16.4 90 1.0 NW 26 30 14 16 1012.1 1010.7 4.0
21/07:00pm 18.4 14.9 16.6 89 1.1 NW 30 41 16 22 1011.2 1009.8 4.0
21/06:30pm 18.3 14.0 17.0 92 0.8 NW 35 41 19 22 1011.5 1010.0 4.0
21/06:00pm 17.8 14.6 17.3 97 0.3 NW 30 35 16 19 1011.5 1010.0 4.0
21/05:30pm 18.1 14.5 17.3 95 0.5 NW 32 39 17 21 1011.1 1009.7 4.0
21/05:00pm 18.0 15.3 17.5 97 0.3 NW 28 32 15 17 1011.2 1009.8 4.0
21/04:30pm 17.1 13.8 16.9 99 0.1 NW 30 33 16 18 1011.6 1010.1 4.0
21/04:00pm 17.1 14.1 16.9 99 0.1 WNW 28 35 15 19 1011.9 1010.5 4.0
21/03:40pm 16.7 13.3 16.7 100 0.0 NW 30 35 16 19 1012.2 1010.8 4.0
21/03:30pm 16.7 12.7 16.7 100 0.0 NW 33 41 18 22 1012.5 1011.1 4.0
21/03:00pm 17.0 11.0 16.4 96 0.4 NW 43 54 23 29 1012.9 1011.4 3.8
21/02:39pm 17.6 13.6 17.6 100 0.0 NW 35 44 19 24 1012.7 1011.3 3.8
21/02:30pm 17.6 14.2 17.6 100 0.0 NW 32 41 17 22 1012.7 1011.3 3.6
21/02:19pm 17.5 14.4 17.5 100 0.0 NW 30 37 16 20 1013.0 1011.6 3.4
21/02:00pm 17.3 11.1 17.3 100 0.0 NW 46 59 25 32 1012.9 1011.4 3.0
21/01:50pm 18.9 13.3 17.4 91 0.9 NW 43 63 23 34 1012.5 1011.1 0.6
21/01:48pm 19.5 14.1 16.9 85 1.6 NW 41 61 22 33 1012.2 1010.8 0.4
21/01:30pm 21.9 16.9 16.2 70 3.6 NW 37 48 20 26 1012.7 1011.3 0.0
21/01:00pm 23.0 18.3 16.8 68 3.9 NW 37 46 20 25 1013.1 1011.7 0.0
21/12:30pm 22.4 17.1 16.2 68 3.9 NW 39 48 21 26 1013.2 1011.8 0.0
21/12:00pm 22.6 18.0 16.2 67 4.0 NW 35 46 19 25 1013.8 1012.4 0.0
21/11:30am 21.9 17.3 16.2 70 3.6 NW 35 44 19 24 1014.5 1013.1 0.0
21/11:00am 21.3 17.1 15.8 71 3.4 NW 32 43 17 23 1014.7 1013.3 0.0
21/10:39am 21.2 16.6 16.0 72 3.2 NNW 35 54 19 29 1014.8 1013.4 0.0
21/10:30am 20.7 15.1 15.5 72 3.2 NW 39 50 21 27 1014.5 1013.1 0.0
21/10:00am 20.1 14.0 15.1 73 3.0 NW 41 54 22 29 1014.8 1013.4 0.0
21/09:54am 20.0 15.1 15.2 74 2.9 NW 35 54 19 29 1014.8 1013.4 0.0
21/09:30am 19.3 14.8 15.4 78 2.4 NNW 33 46 18 25 1015.2 1013.8 0.0
21/09:00am 19.0 14.3 14.9 77 2.5 NNW 33 43 18 23 1015.1 1013.7 2.2
21/08:30am 18.2 13.4 14.5 79 2.2 NNW 33 44 18 24 1015.3 1014.0 2.2
21/08:00am 18.2 13.5 14.3 78 2.3 NNW 32 43 17 23 1015.3 1014.0 2.2
21/07:30am 17.5 13.1 14.0 80 2.1 NNW 30 39 16 21 1015.3 1014.0 2.2
21/07:00am 16.8 12.7 13.9 83 1.7 NNW 28 37 15 20 1015.2 1013.8 2.2
21/06:30am 16.2 13.6 13.7 85 1.5 NNW 20 30 11 16 1015.2 1013.8 2.2
21/06:00am 16.3 14.5 13.2 82 1.8 NW 15 24 8 13 1015.0 1013.6 2.2
21/05:30am 15.5 13.3 13.3 87 1.3 WNW 17 20 9 11 1015.0 1013.6 2.2
21/05:00am 15.4 12.9 13.4 88 1.2 WNW 19 20 10 11 1014.9 1013.5 2.2
21/04:30am 14.4 11.1 13.9 97 0.3 NW 24 26 13 14 1014.8 1013.4 2.2
21/04:00am 14.3 11.8 14.1 99 0.1 NW 20 24 11 13 1014.7 1013.3 2.2
21/03:30am 14.0 11.6 13.8 99 0.1 WNW 19 24 10 13 1014.7 1013.3 2.2
21/03:00am 14.2 11.7 14.0 99 0.1 WNW 20 24 11 13 1014.7 1013.3 2.2
21/02:30am 14.6 11.5 14.4 99 0.1 NW 24 28 13 15 1014.7 1013.3 2.2
21/02:00am 14.3 10.7 14.1 99 0.1 NW 26 32 14 17 1014.9 1013.5 2.2
21/01:32am 14.4 10.8 14.2 99 0.1 NW 26 32 14 17 1015.1 1013.7 2.2
21/01:30am 14.4 10.8 14.2 99 0.1 NW 26 32 14 17 1015.2 1013.8 2.2
21/01:01am 15.1 11.6 14.6 97 0.3 NW 26 30 14 16 1015.4 1014.1 2.2
21/01:00am 15.2 12.2 14.9 98 0.2 NW 24 30 13 16 1015.4 1014.1 2.2
21/12:30am 14.4 11.2 14.2 99 0.1 NW 24 28 13 15 1015.5 1014.2 2.2
21/12:03am 14.8 11.3 14.6 99 0.1 NW 26 33 14 18 1015.6 1014.3 2.2
21/12:00am 14.6 11.1 14.4 99 0.1 NW 26 33 14 18 1015.6 1014.3 2.2
 
Date/Time
EST
Temp
°C
App
Temp
°C
Dew
Point
°C
Rel
Hum
%
Delta-T
°C
Wind Press
QNH
hPa
Press
MSL
hPa
Rain since
9am
mm
Dir  Spd
km/h
Gust
km/h
Spd
kts
Gust
kts
20/11:30pm 14.8 11.8 14.8 100 0.0 NW 24 30 13 16 1015.9 1014.5 2.2
20/11:28pm 14.6 11.5 14.6 100 0.0 NW 24 28 13 15 1015.9 1014.5 2.2
20/11:00pm 14.0 11.1 14.0 100 0.0 NW 22 24 12 13 1016.1 1014.7 2.2
20/10:30pm 14.4 11.6 14.4 100 0.0 NW 22 28 12 15 1016.2 1014.8 2.2
20/10:00pm 15.1 11.2 14.5 96 0.4 NW 28 30 15 16 1016.1 1014.7 2.2
20/09:41pm 15.0 11.5 14.5 97 0.3 NW 26 30 14 16 1016.3 1014.9 2.2
20/09:30pm 15.4 11.5 14.4 94 0.6 NW 28 32 15 17 1016.3 1014.9 2.2
20/09:23pm 15.4 11.5 14.4 94 0.6 NW 28 32 15 17 1016.3 1014.9 2.2
20/09:00pm 15.0 12.2 14.4 96 0.4 NW 22 26 12 14 1016.2 1014.8 2.2
20/08:30pm 15.5 12.3 14.2 92 0.8 NW 24 28 13 15 1016.1 1014.7 2.2
20/08:00pm 15.9 12.3 14.1 89 1.1 NW 26 33 14 18 1015.8 1014.4 2.2
20/07:30pm 15.8 11.8 14.0 89 1.1 NW 28 33 15 18 1015.6 1014.3 2.2
20/07:00pm 16.0 11.6 14.2 89 1.1 NW 30 35 16 19 1015.2 1013.8 2.2
20/06:30pm 15.9 12.4 14.6 92 0.8 NW 26 32 14 17 1015.1 1013.7 2.2
20/06:00pm 15.6 12.6 14.8 95 0.5 NW 24 28 13 15 1014.9 1013.5 2.2
20/05:30pm 15.9 12.0 14.4 91 0.9 NW 28 33 15 18 1014.8 1013.4 2.2
20/05:00pm 15.8 12.0 14.8 94 0.6 NW 28 32 15 17 1014.6 1013.2 2.2
20/04:35pm 15.8 11.4 15.2 96 0.4 NW 32 39 17 21 1014.5 1013.1 2.2
20/04:30pm 15.9 11.3 15.1 95 0.5 NW 33 39 18 21 1014.4 1013.0 2.2
20/04:00pm 15.9 11.8 15.9 100 0.0 NNW 32 37 17 20 1014.3 1012.9 2.2
20/03:30pm 15.8 12.0 15.8 100 0.0 NW 30 37 16 20 1014.3 1012.9 2.2
20/03:00pm 15.7 11.3 15.7 100 0.0 NW 33 44 18 24 1014.0 1012.6 2.2
20/02:30pm 15.3 9.6 15.3 100 0.0 NW 39 50 21 27 1014.1 1012.8 2.2
20/02:00pm 14.7 8.8 14.7 100 0.0 NW 39 50 21 27 1014.5 1013.1 2.2
20/01:49pm 14.7 9.2 14.7 100 0.0 NW 37 50 20 27 1014.6 1013.2 2.2
20/01:30pm 14.3 8.6 14.3 100 0.0 NW 37 44 20 24 1014.8 1013.4 2.2
20/01:00pm 13.5 6.8 13.5 100 0.0 NW 41 52 22 28 1015.0 1013.6 1.8
20/12:52pm 13.5 6.4 13.5 100 0.0 NW 43 54 23 29 1015.0 1013.6 1.8
20/12:30pm 13.7 6.1 13.7 100 0.0 NW 46 59 25 32 1014.9 1013.5 1.8
20/12:19pm 13.8 7.2 13.8 100 0.0 NW 41 63 22 34 1015.0 1013.6 1.6
20/12:10pm 13.9 6.7 13.7 99 0.1 NW 44 56 24 30 1015.2 1013.8 1.2
20/12:00pm 14.2 6.5 13.4 95 0.5 NW 46 56 25 30 1015.1 1013.7 0.2
20/11:30am 13.1 6.2 12.9 99 0.1 NW 41 54 22 29 1016.0 1014.6 0.2
20/11:00am 12.9 6.7 12.6 98 0.2 NW 37 50 20 27 1016.3 1014.9 0.2
20/10:47am 12.6 6.7 12.4 99 0.1 NNW 35 54 19 29 1016.5 1015.2 0.2
20/10:30am 12.4 6.1 12.2 99 0.1 NW 37 54 20 29 1016.7 1015.4 0.2
20/10:21am 12.3 6.3 12.1 99 0.1 NW 35 54 19 29 1016.8 1015.5 0.2
20/10:00am 11.9 5.1 11.9 100 0.0 NW 39 50 21 27 1017.1 1015.8 0.2
20/09:49am 11.9 5.5 11.9 100 0.0 NW 37 50 20 27 1017.1 1015.8 0.2
20/09:34am 11.8 4.2 11.8 100 0.0 NW 43 59 23 32 1017.1 1015.8 0.2
20/09:30am 11.8 4.6 11.8 100 0.0 NW 41 59 22 32 1017.3 1015.9 0.2
20/09:26am 11.8 4.6 11.8 100 0.0 NW 41 59 22 32 1017.1 1015.8 0.0
20/09:23am 11.8 5.0 11.8 100 0.0 NW 39 56 21 30 1017.3 1015.9 0.0
20/09:14am 11.8 5.0 11.8 100 0.0 NNW 39 61 21 33 1017.0 1015.7 0.0
20/09:00am 11.5 5.3 11.5 100 0.0 NW 35 54 19 29 1017.1 1015.8 8.4
20/08:58am 11.5 5.3 11.5 100 0.0 NW 35 54 19 29 1017.0 1015.7 8.4
20/08:39am 11.2 4.9 11.2 100 0.0 NW 35 46 19 25 1017.7 1016.4 7.0
20/08:30am 11.2 4.9 11.0 99 0.1 NW 35 48 19 26 1017.8 1016.5 6.2
20/08:21am 11.2 4.9 11.0 99 0.1 NW 35 50 19 27 1017.7 1016.4 5.4
20/08:00am 11.5 4.9 11.3 99 0.1 NW 37 54 20 29 1017.7 1016.4 3.8
20/07:39am 12.0 4.0 10.6 91 0.8 NW 43 57 23 31 1017.4 1016.0 1.6
20/07:30am 13.0 5.9 9.6 80 1.8 NW 37 54 20 29 1017.0 1015.7 1.0
20/07:13am 12.8 7.4 9.6 81 1.7 NW 28 48 15 26 1017.3 1015.9 1.0
20/07:00am 12.5 7.9 9.7 83 1.5 NNW 24 41 13 22 1017.5 1016.1 1.0
20/06:30am 12.1 6.1 10.0 87 1.1 NW 32 48 17 26 1017.4 1016.0 1.0
20/06:00am 11.9 6.3 10.0 88 1.0 NW 30 43 16 23 1017.4 1016.0 1.0
20/05:30am 11.5 5.3 10.2 92 0.7 NW 33 44 18 24 1017.1 1015.8 1.0
20/05:00am 11.6 5.7 10.3 92 0.7 NW 32 43 17 23 1017.5 1016.1 0.8
20/04:30am 12.1 6.6 10.5 90 0.9 NW 30 43 16 23 1017.8 1016.5 0.6

Other formats

Comma delimited format used in spreadsheet applications
http://www.bom.gov.au/fwo/IDN60801/IDN60801.95747.axf

JavaScript Object Notation format (JSON) in row-major order
http://www.bom.gov.au/fwo/IDN60801/IDN60801.95747.json

Data quality

Most of these data are generated automatically and are frequently updated. Quality checks on data are not normally performed. It is possible for incorrect values to appear. Refer to information at About Latest Weather Observations and please check the disclaimer before using these data.